createdAt,value
2023-05-09T00:00:47.886Z,18.83
2023-05-09T00:03:34.178Z,21.65
2023-05-09T00:06:19.221Z,20.13
2023-05-09T00:09:04.976Z,20.90
2023-05-09T00:11:50.219Z,21.50
2023-05-09T00:14:35.609Z,22.13
2023-05-09T00:17:21.146Z,19.92
2023-05-09T00:20:09.335Z,20.67
2023-05-09T00:22:54.892Z,19.73
2023-05-09T00:25:39.796Z,19.85
2023-05-09T00:28:25.161Z,19.85
2023-05-09T00:31:10.059Z,22.88
2023-05-09T00:33:54.883Z,23.17
2023-05-09T00:36:40.174Z,19.75
2023-05-09T00:39:25.339Z,20.52
2023-05-09T00:42:10.506Z,22.38
2023-05-09T00:44:55.862Z,22.20
2023-05-09T00:47:41.398Z,22.77
2023-05-09T00:50:26.626Z,20.67
2023-05-09T00:53:12.480Z,20.25
2023-05-09T00:55:58.104Z,19.75
2023-05-09T00:58:43.971Z,21.42
2023-05-09T01:01:29.264Z,20.20
2023-05-09T01:04:15.267Z,21.15
2023-05-09T01:07:16.754Z,20.77
2023-05-09T01:10:08.469Z,18.33
2023-05-09T01:13:19.159Z,18.75
2023-05-09T01:16:16.430Z,22.88
2023-05-09T01:19:36.502Z,19.33
2023-05-09T01:22:29.896Z,19.13
2023-05-09T01:25:20.831Z,19.73
2023-05-09T01:28:05.649Z,17.67
2023-05-09T01:30:53.313Z,19.27
2023-05-09T01:33:42.471Z,19.98
2023-05-09T01:36:31.901Z,17.98
2023-05-09T01:39:19.192Z,17.73
2023-05-09T01:42:08.439Z,19.98
2023-05-09T01:44:54.656Z,16.52
2023-05-09T01:47:41.657Z,18.08
2023-05-09T01:50:29.557Z,18.27
2023-05-09T01:53:17.231Z,18.08
2023-05-09T01:56:04.274Z,18.45
2023-05-09T01:58:51.702Z,17.92
2023-05-09T02:01:37.535Z,21.60
2023-05-09T02:04:23.861Z,18.02
2023-05-09T02:07:10.715Z,20.88
2023-05-09T02:09:57.405Z,17.85
2023-05-09T02:12:42.403Z,17.55
2023-05-09T02:15:29.473Z,18.23
2023-05-09T02:18:14.585Z,18.50
2023-05-09T02:21:00.362Z,17.25
2023-05-09T02:23:45.493Z,16.77
2023-05-09T02:26:31.028Z,18.75
2023-05-09T02:29:20.383Z,18.17
2023-05-09T02:32:12.227Z,19.33
2023-05-09T02:34:58.932Z,18.00
2023-05-09T02:37:45.643Z,18.17
2023-05-09T02:40:31.085Z,17.35
2023-05-09T02:43:16.764Z,16.25
2023-05-09T02:46:02.010Z,17.88
2023-05-09T02:48:47.505Z,18.73
2023-05-09T02:51:32.815Z,18.83
2023-05-09T02:54:18.164Z,18.77
2023-05-09T02:57:03.956Z,16.83
2023-05-09T02:59:49.006Z,17.90
2023-05-09T03:02:34.520Z,16.75
2023-05-09T03:05:19.874Z,17.58
2023-05-09T03:08:05.575Z,16.80
2023-05-09T03:10:50.822Z,17.33
2023-05-09T03:13:36.076Z,15.65
2023-05-09T03:16:21.100Z,16.23
2023-05-09T03:19:06.293Z,18.17
2023-05-09T03:21:51.182Z,17.42
2023-05-09T03:24:36.007Z,18.83
2023-05-09T03:27:21.402Z,16.05
2023-05-09T03:30:06.992Z,18.15
2023-05-09T03:32:52.151Z,17.05
2023-05-09T03:35:37.485Z,20.80
2023-05-09T03:38:22.910Z,16.48
2023-05-09T03:41:08.237Z,18.52
2023-05-09T03:43:53.543Z,19.08
2023-05-09T03:46:38.631Z,18.30
2023-05-09T03:49:24.110Z,18.40
2023-05-09T03:52:09.443Z,18.25
2023-05-09T03:54:54.898Z,17.00
2023-05-09T03:57:40.281Z,19.25
2023-05-09T04:00:25.175Z,20.92
2023-05-09T04:03:10.921Z,19.55
2023-05-09T04:05:56.404Z,19.92
2023-05-09T04:08:42.069Z,19.92
2023-05-09T04:11:27.151Z,19.08
2023-05-09T04:14:12.650Z,22.63
2023-05-09T04:16:57.684Z,19.63
2023-05-09T04:19:42.956Z,21.58
2023-05-09T04:22:28.489Z,23.33
2023-05-09T04:25:13.999Z,20.70
2023-05-09T04:27:59.213Z,21.23
2023-05-09T04:30:44.475Z,21.50
2023-05-09T04:33:29.821Z,21.23
2023-05-09T04:36:14.720Z,22.88
2023-05-09T04:39:00.171Z,21.15
2023-05-09T04:41:45.847Z,24.50
2023-05-09T04:44:31.074Z,24.98
2023-05-09T04:47:16.320Z,24.17
2023-05-09T04:50:01.186Z,22.98
2023-05-09T04:52:46.074Z,24.92
2023-05-09T04:55:31.512Z,22.48
2023-05-09T04:58:16.922Z,24.10
2023-05-09T05:01:01.844Z,23.95
2023-05-09T05:03:47.130Z,23.30
2023-05-09T05:06:32.197Z,24.90
2023-05-09T05:09:17.609Z,23.52
2023-05-09T05:12:04.234Z,26.85
2023-05-09T05:14:50.736Z,26.17
2023-05-09T05:17:36.315Z,23.85
2023-05-09T05:20:21.528Z,24.67
2023-05-09T05:23:06.938Z,25.95
2023-05-09T05:25:52.072Z,26.85
2023-05-09T05:28:37.673Z,25.73
2023-05-09T05:31:22.970Z,28.90
2023-05-09T05:34:08.654Z,25.33
2023-05-09T05:36:53.953Z,24.45
2023-05-09T05:39:39.539Z,27.50
2023-05-09T05:42:24.792Z,25.17
2023-05-09T05:45:10.529Z,28.05
2023-05-09T05:47:55.368Z,24.75
2023-05-09T05:50:40.698Z,25.38
2023-05-09T05:53:25.970Z,25.70
2023-05-09T05:56:11.313Z,26.65
2023-05-09T05:58:56.841Z,33.03
2023-05-09T06:01:43.695Z,82.40
2023-05-09T06:04:31.685Z,29.40
2023-05-09T06:07:18.713Z,26.92
2023-05-09T06:10:04.211Z,26.60
2023-05-09T06:12:49.105Z,26.92
2023-05-09T06:15:34.614Z,28.00
2023-05-09T06:18:19.964Z,26.13
2023-05-09T06:21:05.579Z,28.15
2023-05-09T06:24:01.986Z,25.23
2023-05-09T06:26:53.068Z,25.88
2023-05-09T06:29:38.612Z,26.25
2023-05-09T06:32:23.829Z,27.17
2023-05-09T06:35:09.416Z,28.55
2023-05-09T06:37:54.702Z,28.10
2023-05-09T06:40:39.988Z,27.08
2023-05-09T06:43:25.418Z,29.85
2023-05-09T06:46:11.248Z,28.10
2023-05-09T06:48:56.615Z,76.15
2023-05-09T06:51:42.097Z,30.85
2023-05-09T06:54:27.400Z,28.33
2023-05-09T06:57:12.951Z,29.33
2023-05-09T06:59:58.385Z,28.67
2023-05-09T07:02:43.856Z,29.90
2023-05-09T07:05:29.289Z,31.15
2023-05-09T07:08:14.740Z,29.88
2023-05-09T07:11:00.198Z,29.65
2023-05-09T07:13:45.436Z,29.50
2023-05-09T07:16:31.057Z,28.05
2023-05-09T07:19:16.406Z,29.45
2023-05-09T07:22:01.605Z,30.23
2023-05-09T07:24:46.496Z,28.70
2023-05-09T07:27:31.837Z,29.92
2023-05-09T07:30:17.579Z,28.15
2023-05-09T07:33:03.408Z,30.52
2023-05-09T07:35:49.086Z,28.90
2023-05-09T07:38:34.241Z,29.58
2023-05-09T07:41:19.829Z,29.33
2023-05-09T07:44:05.159Z,28.70
2023-05-09T07:46:50.299Z,28.73
2023-05-09T07:49:35.726Z,28.55
2023-05-09T07:52:20.668Z,27.98
2023-05-09T07:55:06.141Z,27.48
2023-05-09T07:57:51.306Z,27.15
2023-05-09T08:00:36.767Z,31.88
2023-05-09T08:03:22.325Z,27.73
2023-05-09T08:06:07.734Z,27.85
2023-05-09T08:08:52.820Z,25.50
2023-05-09T08:11:38.414Z,27.35
2023-05-09T08:14:23.907Z,25.52
2023-05-09T08:17:09.353Z,24.42
2023-05-09T08:19:54.611Z,25.58
2023-05-09T08:22:40.431Z,26.70
2023-05-09T08:25:25.677Z,24.50
2023-05-09T08:28:11.047Z,24.17
2023-05-09T08:30:56.488Z,25.08
2023-05-09T08:33:42.121Z,26.20
2023-05-09T08:36:27.305Z,24.27
2023-05-09T08:39:12.752Z,25.52
2023-05-09T08:41:59.957Z,24.33
2023-05-09T08:44:45.445Z,25.23
2023-05-09T08:47:30.439Z,25.73
2023-05-09T08:50:16.976Z,25.15
2023-05-09T08:53:02.875Z,26.10
2023-05-09T08:55:51.648Z,24.85
2023-05-09T08:58:37.215Z,25.00
2023-05-09T09:01:22.525Z,26.02
2023-05-09T09:04:08.449Z,24.85
2023-05-09T09:06:54.183Z,25.05
2023-05-09T09:09:44.771Z,27.00
2023-05-09T09:12:31.075Z,24.33
2023-05-09T09:15:19.885Z,24.80
2023-05-09T09:18:07.992Z,23.23
2023-05-09T09:20:57.796Z,23.50
2023-05-09T09:23:45.373Z,26.65
2023-05-09T09:26:30.570Z,23.88
2023-05-09T09:29:17.813Z,25.42
2023-05-09T09:32:05.839Z,25.83
2023-05-09T09:34:50.895Z,26.20
2023-05-09T09:37:37.498Z,26.35
2023-05-09T09:40:24.258Z,24.30
2023-05-09T09:43:09.613Z,23.50
2023-05-09T09:45:55.232Z,23.35
2023-05-09T09:48:40.093Z,22.98
2023-05-09T09:51:27.372Z,24.33
2023-05-09T09:54:12.940Z,21.90
2023-05-09T09:56:58.316Z,24.80
2023-05-09T09:59:58.166Z,23.63
2023-05-09T10:02:56.933Z,24.77
2023-05-09T10:05:42.431Z,22.63
2023-05-09T10:08:27.447Z,24.45
2023-05-09T10:11:13.601Z,24.25
2023-05-09T10:13:58.634Z,28.45
2023-05-09T10:16:44.846Z,24.73
2023-05-09T10:19:30.746Z,23.20
2023-05-09T10:22:18.054Z,22.52
2023-05-09T10:25:05.713Z,22.25
2023-05-09T10:27:55.748Z,22.50
2023-05-09T10:31:01.040Z,21.70
2023-05-09T10:33:48.387Z,21.80
2023-05-09T10:36:33.548Z,21.40
2023-05-09T10:39:19.291Z,20.38
2023-05-09T10:42:05.353Z,21.13
2023-05-09T10:44:52.346Z,21.88
2023-05-09T10:47:42.198Z,22.20
2023-05-09T10:50:27.635Z,22.48
2023-05-09T10:53:13.042Z,21.13
2023-05-09T10:55:58.484Z,22.63
2023-05-09T10:58:47.831Z,20.05
2023-05-09T11:01:33.925Z,21.50
2023-05-09T11:04:18.999Z,19.80
2023-05-09T11:07:22.282Z,20.45
2023-05-09T11:10:18.297Z,20.38
2023-05-09T11:13:03.241Z,19.15
2023-05-09T11:16:01.073Z,21.90
2023-05-09T11:18:51.642Z,20.60
2023-05-09T11:21:37.039Z,19.20
2023-05-09T11:24:22.629Z,19.05
2023-05-09T11:27:26.264Z,19.73
2023-05-09T11:30:13.442Z,19.38
2023-05-09T11:32:59.156Z,17.67
2023-05-09T11:35:44.557Z,18.63
2023-05-09T11:38:41.277Z,20.25
2023-05-09T11:41:27.192Z,19.00
2023-05-09T11:44:16.968Z,21.45
2023-05-09T11:47:02.321Z,20.27
2023-05-09T11:49:50.437Z,20.65
2023-05-09T11:52:36.597Z,21.52
2023-05-09T11:55:28.025Z,19.88
2023-05-09T11:58:13.442Z,22.08
2023-05-09T12:00:59.026Z,19.45
2023-05-09T12:03:45.278Z,16.38
2023-05-09T12:06:30.908Z,18.83
2023-05-09T12:09:16.255Z,17.67
2023-05-09T12:12:01.514Z,18.73
2023-05-09T12:14:48.383Z,18.00
2023-05-09T12:17:35.221Z,17.00
2023-05-09T12:20:20.741Z,18.90
2023-05-09T12:23:06.806Z,17.55
2023-05-09T12:25:56.726Z,18.38
2023-05-09T12:28:42.527Z,18.05
2023-05-09T12:31:28.209Z,16.33
2023-05-09T12:34:13.493Z,15.48
2023-05-09T12:36:58.787Z,15.38
2023-05-09T12:40:06.130Z,16.02
2023-05-09T12:42:51.311Z,14.88
2023-05-09T12:45:38.898Z,13.02
2023-05-09T12:48:24.807Z,13.55
2023-05-09T12:51:10.373Z,14.43
2023-05-09T12:54:02.264Z,12.85
2023-05-09T12:56:47.405Z,13.70
2023-05-09T12:59:32.585Z,13.43
2023-05-09T13:02:18.069Z,12.88
2023-05-09T13:05:10.890Z,14.45
2023-05-09T13:07:56.831Z,14.50
2023-05-09T13:10:42.239Z,15.07
2023-05-09T13:13:27.869Z,12.52
2023-05-09T13:16:15.776Z,13.18
2023-05-09T13:19:02.485Z,12.70
2023-05-09T13:21:47.960Z,15.00
2023-05-09T13:24:33.212Z,15.90
2023-05-09T13:27:18.541Z,13.05
2023-05-09T13:30:05.048Z,12.38
2023-05-09T13:32:50.104Z,14.82
2023-05-09T13:35:35.245Z,18.30
2023-05-09T13:38:20.564Z,17.77
2023-05-09T13:41:06.566Z,19.08
2023-05-09T13:43:51.966Z,21.02
2023-05-09T13:46:37.370Z,22.42
2023-05-09T13:49:23.112Z,22.05
2023-05-09T13:52:08.273Z,21.58
2023-05-09T13:54:53.810Z,22.15
2023-05-09T13:57:39.138Z,20.63
2023-05-09T14:00:24.247Z,22.02
2023-05-09T14:03:09.118Z,21.77
2023-05-09T14:06:02.091Z,20.83
2023-05-09T14:08:47.667Z,22.33
2023-05-09T14:11:33.205Z,21.35
2023-05-09T14:14:24.389Z,21.17
2023-05-09T14:17:09.613Z,19.83
2023-05-09T14:19:55.013Z,19.35
2023-05-09T14:22:39.924Z,18.27
2023-05-09T14:25:25.194Z,20.67
2023-05-09T14:28:10.156Z,19.98
2023-05-09T14:30:55.621Z,18.40
2023-05-09T14:33:40.935Z,18.67
2023-05-09T14:36:28.585Z,17.52
2023-05-09T14:39:13.927Z,20.63
2023-05-09T14:41:59.421Z,18.10
2023-05-09T14:44:44.864Z,17.42
2023-05-09T14:47:30.508Z,17.15
2023-05-09T14:50:16.053Z,19.38
2023-05-09T14:53:01.725Z,17.13
2023-05-09T14:55:47.139Z,15.75
2023-05-09T14:58:32.525Z,18.52
2023-05-09T15:01:17.922Z,17.63
2023-05-09T15:04:03.345Z,16.38
2023-05-09T15:06:48.920Z,18.13
2023-05-09T15:09:35.406Z,18.08
2023-05-09T15:12:20.581Z,16.80
2023-05-09T15:15:23.910Z,19.17
2023-05-09T15:18:09.164Z,16.38
2023-05-09T15:20:55.427Z,19.42
2023-05-09T15:23:40.565Z,19.23
2023-05-09T15:26:25.935Z,15.13
2023-05-09T15:29:10.950Z,17.17
2023-05-09T15:31:56.300Z,13.80
2023-05-09T15:34:41.620Z,14.85
2023-05-09T15:37:27.075Z,16.45
2023-05-09T15:40:12.508Z,12.45
2023-05-09T15:42:57.613Z,13.30
2023-05-09T15:45:42.923Z,13.93
2023-05-09T15:48:28.250Z,13.45
2023-05-09T15:51:13.663Z,13.23
2023-05-09T15:53:58.960Z,14.90
2023-05-09T15:56:44.359Z,14.15
2023-05-09T15:59:29.719Z,13.82
2023-05-09T16:02:15.373Z,15.18
2023-05-09T16:05:00.609Z,14.55
2023-05-09T16:07:46.925Z,14.93
2023-05-09T16:10:33.210Z,15.38
2023-05-09T16:13:18.421Z,14.35
2023-05-09T16:16:04.388Z,14.57
2023-05-09T16:18:49.796Z,14.30
2023-05-09T16:21:36.982Z,17.17
2023-05-09T16:24:22.193Z,17.35
2023-05-09T16:27:07.572Z,15.13
2023-05-09T16:29:52.515Z,17.15
2023-05-09T16:32:37.923Z,15.90
2023-05-09T16:35:23.317Z,17.17
2023-05-09T16:38:08.744Z,16.33
2023-05-09T16:40:53.986Z,15.55
2023-05-09T16:43:39.415Z,15.75
2023-05-09T16:46:24.692Z,17.08
2023-05-09T16:49:09.745Z,15.45
2023-05-09T16:51:55.041Z,15.70
2023-05-09T16:54:39.838Z,15.55
2023-05-09T16:57:25.082Z,16.63
2023-05-09T17:00:10.876Z,14.82
2023-05-09T17:02:56.631Z,14.68
2023-05-09T17:05:41.666Z,15.13
2023-05-09T17:08:26.539Z,15.93
2023-05-09T17:11:12.091Z,14.13
2023-05-09T17:13:57.337Z,14.32
2023-05-09T17:16:42.706Z,14.32
2023-05-09T17:19:27.779Z,16.05
2023-05-09T17:22:13.149Z,15.55
2023-05-09T17:24:58.633Z,16.45
2023-05-09T17:27:43.396Z,13.93
2023-05-09T17:30:28.425Z,14.43
2023-05-09T17:33:13.799Z,17.75
2023-05-09T17:35:59.174Z,15.02
2023-05-09T17:38:44.658Z,14.55
2023-05-09T17:41:30.565Z,14.98
2023-05-09T17:44:15.687Z,16.35
2023-05-09T17:47:00.938Z,14.88
2023-05-09T17:49:46.876Z,17.00
2023-05-09T17:52:37.847Z,15.93
2023-05-09T17:55:22.649Z,14.73
2023-05-09T17:58:08.107Z,17.08
2023-05-09T18:00:53.411Z,15.57
2023-05-09T18:03:40.052Z,15.55
2023-05-09T18:06:25.107Z,26.75
2023-05-09T18:09:16.612Z,15.48
2023-05-09T18:12:03.067Z,15.90
2023-05-09T18:14:47.902Z,15.45
2023-05-09T18:17:33.220Z,15.00
2023-05-09T18:20:18.839Z,15.15
2023-05-09T18:23:04.231Z,15.25
2023-05-09T18:25:49.576Z,15.90
2023-05-09T18:28:34.804Z,19.10
2023-05-09T18:31:19.964Z,15.50
2023-05-09T18:34:05.338Z,16.83
2023-05-09T18:36:50.714Z,16.92
2023-05-09T18:39:35.568Z,16.70
2023-05-09T18:42:21.227Z,17.25
2023-05-09T18:45:08.112Z,17.17
2023-05-09T18:47:53.067Z,16.88
2023-05-09T18:50:37.953Z,17.10
2023-05-09T18:53:23.526Z,16.83
2023-05-09T18:56:09.052Z,17.83
2023-05-09T18:58:54.020Z,18.45
2023-05-09T19:01:38.879Z,18.73
2023-05-09T19:04:23.869Z,18.70
2023-05-09T19:07:15.483Z,19.48
2023-05-09T19:10:00.869Z,21.15
2023-05-09T19:12:46.264Z,20.00
2023-05-09T19:15:31.364Z,21.35
2023-05-09T19:18:16.231Z,21.65
2023-05-09T19:21:01.289Z,22.90
2023-05-09T19:23:46.643Z,21.77
2023-05-09T19:26:32.054Z,22.38
2023-05-09T19:29:17.333Z,21.77
2023-05-09T19:32:02.704Z,19.75
2023-05-09T19:34:48.188Z,19.98
2023-05-09T19:37:33.140Z,19.05
2023-05-09T19:40:18.087Z,18.98
2023-05-09T19:43:03.607Z,18.30
2023-05-09T19:45:48.828Z,17.13
2023-05-09T19:48:34.076Z,17.75
2023-05-09T19:51:19.093Z,20.40
2023-05-09T19:54:04.761Z,18.40
2023-05-09T19:56:50.010Z,16.55
2023-05-09T19:59:34.944Z,19.17
2023-05-09T20:02:19.936Z,21.80
2023-05-09T20:05:05.709Z,18.60
2023-05-09T20:07:51.072Z,20.38
2023-05-09T20:10:36.493Z,19.85
2023-05-09T20:13:21.475Z,16.92
2023-05-09T20:16:06.813Z,18.20
2023-05-09T20:18:52.224Z,18.05
2023-05-09T20:21:37.603Z,21.33
2023-05-09T20:24:23.020Z,21.23
2023-05-09T20:27:08.430Z,23.55
2023-05-09T20:29:53.841Z,21.40
2023-05-09T20:32:39.352Z,21.83
2023-05-09T20:35:24.871Z,20.60
2023-05-09T20:38:10.915Z,22.25
2023-05-09T20:40:55.934Z,21.70
2023-05-09T20:43:41.393Z,20.67
2023-05-09T20:46:26.694Z,21.67
2023-05-09T20:49:11.899Z,20.17
2023-05-09T20:51:57.127Z,23.42
2023-05-09T20:54:42.480Z,20.67
2023-05-09T20:57:27.531Z,27.60
2023-05-09T21:00:13.483Z,23.58
2023-05-09T21:02:59.006Z,21.98
2023-05-09T21:05:44.096Z,25.23
2023-05-09T21:08:28.992Z,24.48
2023-05-09T21:11:13.861Z,24.13
2023-05-09T21:13:59.297Z,26.77
2023-05-09T21:16:44.715Z,27.95
2023-05-09T21:19:29.944Z,26.58
2023-05-09T21:22:15.445Z,23.30
2023-05-09T21:25:00.300Z,26.52
2023-05-09T21:27:45.799Z,26.15
2023-05-09T21:30:30.801Z,28.98
2023-05-09T21:33:15.929Z,33.88
2023-05-09T21:36:01.431Z,31.08
2023-05-09T21:38:46.564Z,28.55
2023-05-09T21:41:32.270Z,29.10
2023-05-09T21:44:17.361Z,28.10
2023-05-09T21:47:02.652Z,27.25
2023-05-09T21:49:47.815Z,38.28
2023-05-09T21:52:33.209Z,26.30
2023-05-09T21:55:18.725Z,28.98
2023-05-09T21:58:04.048Z,30.52
2023-05-09T22:00:49.556Z,29.73
2023-05-09T22:03:35.188Z,35.70
2023-05-09T22:06:20.154Z,26.80
2023-05-09T22:09:05.557Z,26.83
2023-05-09T22:11:52.050Z,28.48
2023-05-09T22:14:45.344Z,32.42
2023-05-09T22:17:40.800Z,30.50
2023-05-09T22:20:26.300Z,31.88
2023-05-09T22:23:11.988Z,28.95
2023-05-09T22:25:58.170Z,28.70
2023-05-09T22:28:43.277Z,29.77
2023-05-09T22:31:28.820Z,28.45
2023-05-09T22:34:14.064Z,32.78
2023-05-09T22:36:59.566Z,36.58
2023-05-09T22:39:44.866Z,28.35
2023-05-09T22:42:30.409Z,25.85
2023-05-09T22:45:15.655Z,28.63
2023-05-09T22:48:00.913Z,36.67
2023-05-09T22:50:46.528Z,37.60
2023-05-09T22:53:31.799Z,31.08
2023-05-09T22:56:17.184Z,31.38
2023-05-09T22:59:02.081Z,35.85
2023-05-09T23:01:47.395Z,35.50
2023-05-09T23:04:32.734Z,39.55
2023-05-09T23:07:17.601Z,30.65
2023-05-09T23:10:03.574Z,31.38
2023-05-09T23:12:48.598Z,32.22
2023-05-09T23:15:33.589Z,34.80
2023-05-09T23:18:19.018Z,33.88
2023-05-09T23:21:05.161Z,32.90
2023-05-09T23:23:50.427Z,37.10
2023-05-09T23:26:35.465Z,31.88
2023-05-09T23:29:20.741Z,30.58
2023-05-09T23:32:05.452Z,29.52
2023-05-09T23:34:50.807Z,31.17
2023-05-09T23:37:36.090Z,33.35
2023-05-09T23:40:21.288Z,36.47
2023-05-09T23:43:06.690Z,35.28
2023-05-09T23:45:52.138Z,30.92
2023-05-09T23:48:37.574Z,30.25
2023-05-09T23:51:23.333Z,30.08
2023-05-09T23:54:08.670Z,46.05
2023-05-09T23:56:53.577Z,35.30
2023-05-09T23:59:38.497Z,36.00
